createdAt,value
2022-07-31T00:03:12.677Z,42.17
2022-07-31T00:08:15.187Z,36.97
2022-07-31T00:13:17.027Z,41.25
2022-07-31T00:18:18.844Z,36.13
2022-07-31T00:23:20.686Z,36.45
2022-07-31T00:28:22.479Z,36.63
2022-07-31T00:33:24.418Z,37.75
2022-07-31T00:38:27.278Z,34.20
2022-07-31T00:43:30.778Z,34.15
2022-07-31T00:48:33.957Z,33.15
2022-07-31T00:53:36.317Z,32.92
2022-07-31T00:58:38.137Z,31.30
2022-07-31T01:03:40.208Z,30.88
2022-07-31T01:08:42.055Z,31.88
2022-07-31T01:13:58.031Z,31.45
2022-07-31T01:19:05.118Z,33.20
2022-07-31T01:24:44.571Z,30.67
2022-07-31T01:30:01.304Z,31.50
2022-07-31T01:35:25.880Z,31.13
2022-07-31T01:40:37.570Z,29.40
2022-07-31T01:45:43.777Z,31.83
2022-07-31T01:50:49.751Z,30.55
2022-07-31T01:56:01.818Z,30.15
2022-07-31T02:01:13.996Z,29.85
2022-07-31T02:06:19.090Z,29.98
2022-07-31T02:11:22.130Z,33.00
2022-07-31T02:16:26.543Z,36.10
2022-07-31T02:21:37.960Z,33.75
2022-07-31T02:26:41.106Z,28.98
2022-07-31T02:31:44.830Z,28.02
2022-07-31T02:36:47.454Z,27.85
2022-07-31T02:41:50.062Z,27.98
2022-07-31T02:46:52.260Z,28.83
2022-07-31T02:51:55.797Z,28.38
2022-07-31T02:56:58.762Z,27.13
2022-07-31T03:02:00.790Z,26.90
2022-07-31T03:07:04.980Z,27.65
2022-07-31T03:12:07.793Z,29.40
2022-07-31T03:17:10.737Z,30.33
2022-07-31T03:22:15.436Z,32.22
2022-07-31T03:27:17.672Z,30.30
2022-07-31T03:32:19.659Z,33.97
2022-07-31T03:37:22.038Z,31.00
2022-07-31T03:42:25.020Z,27.45
2022-07-31T03:47:26.949Z,27.65
2022-07-31T03:52:29.712Z,26.98
2022-07-31T03:57:34.205Z,28.45
2022-07-31T04:02:36.758Z,26.38
2022-07-31T04:07:44.496Z,25.70
2022-07-31T04:12:46.374Z,27.95
2022-07-31T04:17:48.817Z,26.17
2022-07-31T04:22:55.684Z,29.27
2022-07-31T04:28:23.386Z,25.77
2022-07-31T04:33:25.826Z,23.30
2022-07-31T04:38:28.005Z,23.58
2022-07-31T04:43:31.155Z,24.17
2022-07-31T04:48:33.086Z,21.73
2022-07-31T04:53:35.019Z,20.63
2022-07-31T04:58:40.707Z,21.77
2022-07-31T05:03:42.543Z,21.30
2022-07-31T05:08:44.545Z,21.65
2022-07-31T05:13:46.415Z,21.20
2022-07-31T05:18:48.699Z,21.58
2022-07-31T05:24:16.876Z,20.52
2022-07-31T05:29:38.563Z,19.85
2022-07-31T05:34:41.129Z,18.85
2022-07-31T05:39:44.831Z,17.75
2022-07-31T05:45:05.393Z,17.63
2022-07-31T05:50:08.512Z,18.60
2022-07-31T05:55:10.485Z,17.45
2022-07-31T06:00:30.469Z,18.25
2022-07-31T06:05:35.092Z,18.20
2022-07-31T06:10:37.690Z,17.75
2022-07-31T06:15:49.056Z,17.75
2022-07-31T06:20:51.468Z,16.15
2022-07-31T06:25:53.398Z,16.30
2022-07-31T06:30:55.632Z,15.48
2022-07-31T06:35:57.560Z,15.90
2022-07-31T06:41:36.759Z,15.00
2022-07-31T06:46:57.176Z,15.80
2022-07-31T06:52:37.886Z,14.18
2022-07-31T06:57:40.556Z,15.40
2022-07-31T07:02:43.250Z,13.82
2022-07-31T07:07:45.257Z,15.82
2022-07-31T07:12:47.324Z,15.05
2022-07-31T07:17:50.101Z,15.38
2022-07-31T07:22:57.039Z,14.15
2022-07-31T07:28:15.232Z,14.20
2022-07-31T07:33:41.604Z,14.98
2022-07-31T07:38:56.192Z,14.45
2022-07-31T07:43:58.842Z,14.77
2022-07-31T07:49:03.583Z,15.65
2022-07-31T07:54:15.325Z,15.07
2022-07-31T07:59:36.055Z,17.33
2022-07-31T08:04:57.879Z,13.70
2022-07-31T08:10:00.560Z,15.13
2022-07-31T08:15:09.934Z,15.90
2022-07-31T08:20:38.466Z,15.13
2022-07-31T08:25:40.870Z,13.93
2022-07-31T08:30:43.186Z,12.15
2022-07-31T08:35:49.618Z,10.68
2022-07-31T08:40:53.374Z,14.98
2022-07-31T08:45:55.871Z,14.10
2022-07-31T08:51:05.508Z,16.73
2022-07-31T08:56:38.008Z,11.43
2022-07-31T09:01:39.990Z,12.75
2022-07-31T09:06:42.004Z,11.00
2022-07-31T09:11:48.669Z,10.52
2022-07-31T09:17:34.712Z,10.20
2022-07-31T09:22:36.719Z,8.98
2022-07-31T09:27:40.319Z,8.88
2022-07-31T09:32:43.368Z,9.55
2022-07-31T09:37:50.979Z,7.30
2022-07-31T09:43:19.999Z,7.25
2022-07-31T09:48:26.666Z,7.95
2022-07-31T09:53:50.304Z,10.43
2022-07-31T09:59:18.435Z,6.80
2022-07-31T10:04:22.720Z,6.43
2022-07-31T10:09:27.439Z,7.10
2022-07-31T10:14:45.092Z,9.10
2022-07-31T10:19:51.099Z,7.45
2022-07-31T10:25:25.901Z,7.45
2022-07-31T10:30:28.990Z,6.60
2022-07-31T10:35:41.395Z,7.95
2022-07-31T10:41:05.972Z,6.00
2022-07-31T10:46:07.891Z,4.88
2022-07-31T10:51:32.596Z,5.65
2022-07-31T10:57:00.455Z,5.68
2022-07-31T11:02:13.980Z,5.57
2022-07-31T11:07:37.807Z,5.25
2022-07-31T11:12:40.268Z,6.63
2022-07-31T11:18:21.193Z,4.68
2022-07-31T11:23:08.623Z,6.00
2022-07-31T11:28:10.575Z,5.10
2022-07-31T11:33:13.182Z,3.00
2022-07-31T11:38:15.099Z,2.78
2022-07-31T11:43:26.193Z,2.42
2022-07-31T11:48:37.410Z,2.40
2022-07-31T11:53:42.011Z,3.25
2022-07-31T11:58:52.023Z,2.42
2022-07-31T12:03:54.460Z,3.53
2022-07-31T12:08:56.701Z,4.22
2022-07-31T12:13:59.561Z,3.08
2022-07-31T12:19:01.356Z,3.75
2022-07-31T12:24:11.015Z,2.85
2022-07-31T12:29:13.253Z,2.92
2022-07-31T12:34:38.348Z,3.10
2022-07-31T12:39:59.303Z,5.10
2022-07-31T12:45:18.026Z,2.67
2022-07-31T12:50:23.092Z,1.92
2022-07-31T12:55:25.021Z,1.92
2022-07-31T13:00:28.057Z,1.98
2022-07-31T13:05:29.892Z,2.55
2022-07-31T13:10:32.297Z,2.05
2022-07-31T13:15:34.563Z,1.40
2022-07-31T13:20:36.375Z,2.75
2022-07-31T13:25:38.257Z,2.20
2022-07-31T13:30:40.106Z,2.53
2022-07-31T13:35:42.113Z,1.50
2022-07-31T13:41:02.306Z,2.80
2022-07-31T13:46:04.550Z,1.65
2022-07-31T13:51:06.398Z,1.67
2022-07-31T13:56:08.382Z,1.70
2022-07-31T14:01:10.327Z,1.90
2022-07-31T14:06:12.333Z,2.45
2022-07-31T14:11:15.299Z,2.25
2022-07-31T14:16:17.193Z,2.03
2022-07-31T14:21:19.026Z,3.25
2022-07-31T14:26:20.885Z,2.30
2022-07-31T14:31:22.707Z,2.13
2022-07-31T14:36:24.569Z,3.63
2022-07-31T14:41:26.380Z,2.97
2022-07-31T14:46:28.260Z,5.45
2022-07-31T14:51:30.081Z,2.80
2022-07-31T14:56:59.695Z,2.67
2022-07-31T15:01:54.007Z,3.50
2022-07-31T15:07:07.610Z,3.15
2022-07-31T15:12:17.794Z,2.25
2022-07-31T15:17:19.671Z,2.75
2022-07-31T15:22:21.511Z,2.90
2022-07-31T15:27:24.269Z,2.53
2022-07-31T15:32:25.909Z,2.80
2022-07-31T15:37:28.519Z,2.83
2022-07-31T15:42:40.756Z,2.90
2022-07-31T15:47:43.421Z,5.28
2022-07-31T15:52:45.108Z,3.00
2022-07-31T15:57:47.158Z,2.45
2022-07-31T16:02:50.056Z,3.40
2022-07-31T16:08:30.981Z,3.63
2022-07-31T16:13:16.435Z,4.75
2022-07-31T16:18:18.771Z,8.43
2022-07-31T16:23:20.644Z,4.80
2022-07-31T16:28:22.332Z,3.75
2022-07-31T16:33:23.953Z,3.28
2022-07-31T16:38:25.651Z,3.25
2022-07-31T16:43:50.348Z,3.78
2022-07-31T16:48:49.009Z,4.25
2022-07-31T16:54:14.500Z,4.13
2022-07-31T16:59:12.338Z,3.92
2022-07-31T17:04:14.333Z,4.47
2022-07-31T17:09:18.564Z,3.92
2022-07-31T17:14:22.207Z,4.20
2022-07-31T17:19:41.260Z,4.80
2022-07-31T17:24:51.141Z,3.88
2022-07-31T17:29:53.198Z,5.50
2022-07-31T17:34:54.930Z,3.60
2022-07-31T17:39:57.827Z,5.32
2022-07-31T17:45:01.903Z,4.57
2022-07-31T17:50:04.284Z,4.68
2022-07-31T17:55:06.934Z,3.92
2022-07-31T18:00:09.983Z,3.90
2022-07-31T18:05:11.793Z,3.92
2022-07-31T18:10:13.541Z,3.83
2022-07-31T18:15:15.423Z,4.97
2022-07-31T18:20:21.747Z,4.10
2022-07-31T18:25:23.443Z,4.25
2022-07-31T18:30:30.366Z,4.13
2022-07-31T18:35:34.496Z,4.00
2022-07-31T18:40:36.280Z,4.15
2022-07-31T18:45:41.592Z,4.07
2022-07-31T18:50:59.054Z,3.20
2022-07-31T18:56:05.151Z,3.60
2022-07-31T19:01:06.776Z,3.00
2022-07-31T19:06:08.414Z,5.32
2022-07-31T19:11:11.693Z,2.35
2022-07-31T19:16:13.492Z,3.75
2022-07-31T19:21:19.453Z,2.88
2022-07-31T19:26:25.674Z,2.92
2022-07-31T19:31:27.579Z,4.72
2022-07-31T19:36:29.268Z,4.13
2022-07-31T19:41:32.721Z,4.07
2022-07-31T19:46:35.811Z,4.40
2022-07-31T19:51:37.489Z,5.57
2022-07-31T19:56:39.123Z,6.22
2022-07-31T20:01:40.829Z,4.40
2022-07-31T20:06:42.504Z,4.05
2022-07-31T20:11:44.375Z,5.13
2022-07-31T20:16:46.023Z,5.80
2022-07-31T20:21:47.738Z,5.13
2022-07-31T20:26:51.647Z,5.47
2022-07-31T20:31:53.629Z,4.60
2022-07-31T20:36:55.529Z,5.82
2022-07-31T20:41:58.619Z,5.28
2022-07-31T20:47:00.376Z,5.18
2022-07-31T20:52:02.320Z,5.43
2022-07-31T20:57:04.180Z,5.90
2022-07-31T21:02:06.160Z,6.15
2022-07-31T21:07:07.866Z,6.38
2022-07-31T21:12:09.676Z,6.45
2022-07-31T21:17:11.347Z,6.30
2022-07-31T21:22:13.109Z,6.80
2022-07-31T21:27:17.777Z,6.45
2022-07-31T21:32:19.843Z,6.50
2022-07-31T21:37:23.044Z,6.95
2022-07-31T21:42:25.124Z,6.68
2022-07-31T21:47:30.312Z,6.90
2022-07-31T21:52:52.130Z,7.07
2022-07-31T21:57:59.069Z,7.15
2022-07-31T22:03:03.322Z,6.90
2022-07-31T22:08:05.316Z,6.70
2022-07-31T22:13:10.420Z,8.95
2022-07-31T22:18:12.509Z,8.20
2022-07-31T22:23:14.696Z,7.13
2022-07-31T22:28:21.842Z,7.15
2022-07-31T22:33:23.950Z,7.65
2022-07-31T22:38:27.214Z,8.30
2022-07-31T22:44:10.289Z,8.00
2022-07-31T22:48:53.579Z,7.57
2022-07-31T22:53:55.444Z,6.97
2022-07-31T22:58:57.290Z,7.72
2022-07-31T23:03:59.118Z,7.05
2022-07-31T23:09:01.888Z,7.22
2022-07-31T23:14:03.997Z,7.93
2022-07-31T23:19:06.012Z,7.50
2022-07-31T23:24:08.484Z,6.68
2022-07-31T23:29:10.321Z,7.20
2022-07-31T23:34:12.194Z,6.78
2022-07-31T23:39:14.122Z,6.93
2022-07-31T23:44:18.671Z,7.45
2022-07-31T23:49:27.136Z,7.25
2022-07-31T23:54:29.129Z,7.90
2022-07-31T23:59:31.067Z,7.13
